Latest Weather Observations for Larapuna (Eddystone Point)

IDT60801

Issued at 12:05 pm EST Saturday 2 August 2014 (issued every 30 minutes, with the page automatically refreshed every 10 minutes)

About weather observations | Map of weather stations | Latest weather observations for TAS | Other Formats
Station Details ID: 092045 Name: LARAPUNA (EDDYSTONE POINT) Lat: -40.99 Lon: 148.35 Height: 19.7 m
Data from the previous 72 hours. | See also: Recent months at Larapuna (Eddystone Point)
Date/Time
EST
Temp
°C
App
Temp
°C
Dew
Point
Rel
Hum
%
Delta-T
°C
Wind Press
QNH
hPa
Press
MSL
hPa
Rain
since 9 am
mm
Dir
 
Spd
km/h
Gust
km/h
Spd
kts
Gust
kts
02/12:00pm 11.9 4.4 1.0 47 4.5 W 30 41 16 22 1024.0 1024.1 0.0
02/11:30am 11.3 5.7 1.0 49 4.3 WNW 20 33 11 18 1024.2 - 0.0
02/11:00am 10.6 5.6 1.4 53 3.8 W 17 26 9 14 1024.5 1024.6 0.0
02/10:30am 8.8 3.1 0.8 57 3.2 WNW 20 26 11 14 1024.5 - 0.0
02/10:00am 9.1 4.0 0.6 55 3.4 NW 17 20 9 11 1024.2 1024.3 0.0
02/09:30am 7.6 2.5 0.6 61 2.8 NW 17 20 9 11 1024.1 - 0.0
02/09:00am 6.3 1.4 -0.2 63 2.5 NW 15 20 8 11 1023.7 1023.8 2.2
02/08:30am 5.3 -0.1 -1.2 63 2.4 WNW 17 22 9 12 1023.2 - 2.2
02/08:00am 4.8 -0.7 -2.1 61 2.5 W 17 20 9 11 1022.9 1023.0 2.2
02/07:30am 4.0 -2.5 -2.2 64 2.2 W 22 28 12 15 1022.5 - 2.2
02/07:00am 3.1 -3.7 -2.0 69 1.8 W 24 30 13 16 1022.0 1022.1 2.2
02/06:30am 2.6 -4.2 -1.6 74 1.5 WNW 24 30 13 16 1021.4 - 2.2
02/06:00am 3.1 -3.3 -1.4 72 1.6 WNW 22 26 12 14 1020.9 1021.0 2.2
02/05:30am 3.3 -2.5 -1.3 72 1.7 NW 19 22 10 12 1020.4 - 2.2
02/05:00am 3.2 -3.2 -1.9 69 1.8 W 22 28 12 15 1019.9 1020.0 2.2
02/04:30am 3.6 -0.6 -1.2 71 1.7 WSW 11 17 6 9 1019.8 - 2.2
02/04:00am 3.6 -1.0 -1.2 71 1.7 WSW 13 17 7 9 1019.3 1019.4 2.2
02/03:30am 3.5 -0.4 -1.3 71 1.7 W 9 13 5 7 1018.7 - 2.2
02/03:00am 4.6 -0.8 -1.0 67 2.1 WSW 17 22 9 12 1018.4 1018.4 2.2
02/02:30am 6.1 -1.1 0.9 69 2.0 SW 28 33 15 18 1018.0 - 2.2
02/02:00am 6.5 -2.7 1.0 68 2.2 SSW 39 48 21 26 1017.0 1017.0 2.2
02/01:30am 6.2 -3.1 0.9 69 2.1 SSW 39 46 21 25 1016.4 - 2.2
02/01:00am 6.4 -2.1 1.1 69 2.1 SSW 35 43 19 23 1016.0 1016.0 2.2
02/12:30am 6.1 -2.4 1.1 70 2.0 SSW 35 43 19 23 1015.5 - 2.2
02/12:00am 6.0 -1.1 1.2 71 1.9 SW 28 35 15 19 1015.3 1015.3 2.2
 
Date/Time
EST
Temp
°C
App
Temp
°C
Dew
Point
Rel
Hum
%
Delta-T
°C
Wind Press
QNH
hPa
Press
MSL
hPa
Rain
since 9 am
mm
Dir
 
Spd
km/h
Gust
km/h
Spd
kts
Gust
kts
01/11:30pm 6.2 -0.5 1.7 73 1.8 SW 26 37 14 20 1015.0 - 2.2
01/11:00pm 6.7 -2.1 1.6 70 2.1 SSW 37 44 20 24 1014.1 1014.1 2.2
01/10:30pm 6.8 -1.5 1.9 71 2.0 SSW 35 41 19 22 1013.4 - 2.2
01/10:00pm 7.0 -0.3 2.3 72 1.9 SW 30 35 16 19 1012.9 1012.9 2.2
01/09:30pm 7.1 -1.2 2.2 71 2.0 SW 35 44 19 24 1011.8 - 2.2
01/09:00pm 7.4 -2.3 2.7 72 2.0 SSW 43 54 23 29 1010.9 1010.9 2.2
01/08:30pm 7.3 -2.1 2.6 72 2.0 SSW 41 52 22 28 1010.1 - 2.2
01/08:00pm 7.6 -2.2 3.3 74 1.8 SSW 44 50 24 27 1008.8 1008.8 2.2
01/07:30pm 7.5 -2.3 3.6 76 1.7 SSW 44 52 24 28 1007.8 - 2.2
01/07:00pm 7.4 -2.4 3.3 75 1.7 SSW 44 54 24 29 1006.7 1006.7 2.2
01/06:30pm 7.3 -2.6 3.0 74 1.8 S 44 52 24 28 1006.0 - 2.2
01/06:00pm 7.5 -4.5 3.7 77 1.6 S 56 70 30 38 1005.5 1005.5 2.2
01/05:44pm 7.6 -3.9 4.6 81 1.3 S 54 72 29 39 1005.0 - 2.2
01/05:30pm 7.5 -3.9 4.8 83 1.2 S 54 63 29 34 1004.6 - 2.2
01/05:00pm 7.6 -4.1 5.2 85 1.1 S 56 65 30 35 1003.1 1003.1 2.2
01/04:30pm 7.9 -4.6 4.3 78 1.6 S 59 74 32 40 1002.1 - 1.0
01/04:15pm 9.7 -2.3 4.9 72 2.2 S 57 69 31 37 1001.6 - 0.4
01/04:13pm 10.1 2.3 5.1 71 2.3 S 35 57 19 31 1001.7 - 0.4
01/04:10pm 10.4 4.0 5.4 71 2.3 S 28 39 15 21 1001.8 - 0.4
01/04:00pm 9.5 5.8 4.5 71 2.2 W 13 17 7 9 1001.1 1001.1 0.4
01/03:30pm 11.0 6.2 4.9 66 2.8 W 19 28 10 15 1000.0 - 0.4
01/03:00pm 11.0 5.6 4.5 64 2.9 WNW 22 30 12 16 999.1 999.1 0.4
01/02:30pm 11.3 6.6 5.2 66 2.8 WNW 19 30 10 16 998.4 - 0.4
01/02:00pm 9.7 4.8 4.9 72 2.2 W 20 32 11 17 997.9 997.9 0.4
01/01:30pm 9.5 2.3 5.1 74 2.0 W 32 43 17 23 997.4 - 0.4
01/01:08pm 10.0 3.0 6.0 76 1.8 WNW 32 50 17 27 997.0 - 0.4
01/01:00pm 9.2 1.5 5.2 76 1.8 WNW 35 52 19 28 996.5 996.5 0.4
01/12:30pm 8.9 2.7 6.0 82 1.3 NW 28 37 15 20 995.9 - 0.4
01/12:00pm 7.8 1.4 5.4 85 1.1 NW 28 39 15 21 995.6 995.6 0.4
01/11:30am 7.5 1.5 5.1 85 1.1 NW 26 33 14 18 995.9 - 0.4
01/11:00am 7.1 1.4 4.8 85 1.0 NW 24 39 13 21 996.2 996.2 0.4
01/10:30am 7.7 4.0 6.2 90 0.7 NNW 15 22 8 12 995.6 - 0.4
01/10:00am 5.9 0.1 4.5 91 0.6 NW 24 32 13 17 995.5 995.5 0.4
01/09:30am 5.4 -1.2 4.1 91 0.6 WNW 28 37 15 20 995.6 - 0.2
01/09:00am 4.9 -0.1 3.7 92 0.5 WNW 19 26 10 14 995.1 995.1 15.4
01/08:30am 4.1 -2.0 2.8 91 0.5 NW 24 28 13 15 995.1 - 15.2
01/08:00am 3.0 -5.4 1.4 89 0.6 WSW 35 50 19 27 995.0 995.0 12.4
01/07:55am 4.6 -3.6 2.9 89 0.7 WSW 35 50 19 27 995.1 - 9.8
01/07:30am 5.1 1.2 3.3 88 0.7 W 13 20 7 11 994.8 - 8.8
01/07:00am 5.3 0.7 3.5 88 0.8 WSW 17 22 9 12 995.2 995.2 8.8
01/06:30am 5.9 0.3 3.7 86 0.9 WSW 22 32 12 17 994.6 - 8.6
01/06:00am 6.0 0.0 3.5 84 1.1 WNW 24 48 13 26 994.1 994.1 8.6
01/05:30am 6.8 -0.1 2.3 73 1.8 WNW 28 35 15 19 993.3 - 7.8
01/05:00am 7.0 -0.7 2.3 72 2.0 WNW 32 43 17 23 993.0 993.0 7.8
01/04:30am 6.8 0.3 2.5 74 1.8 WNW 26 35 14 19 993.4 - 7.8
01/04:00am 7.0 -0.7 2.3 72 2.0 WNW 32 44 17 24 992.7 992.7 7.8
01/03:30am 7.1 -0.6 2.4 72 1.9 WNW 32 46 17 25 993.2 - 7.8
01/03:00am 7.1 -0.2 2.4 72 2.0 WNW 30 50 16 27 993.1 993.1 7.8
01/02:57am 7.2 -0.1 2.5 72 1.9 WNW 30 50 16 27 993.0 - 7.8
01/02:30am 7.2 -0.7 2.5 72 1.9 WNW 33 48 18 26 992.7 - 7.8
01/02:00am 7.1 1.0 2.6 73 1.9 WNW 24 35 13 19 992.7 992.7 7.8
01/01:30am 7.1 -0.5 2.8 74 1.8 WNW 32 46 17 25 992.8 - 7.8
01/01:21am 7.1 0.3 3.2 76 1.6 W 28 46 15 25 992.7 - 7.8
01/01:00am 6.7 0.3 3.1 78 1.5 WNW 26 37 14 20 992.4 992.4 7.8
01/12:30am 6.6 0.6 3.6 81 1.3 W 24 39 13 21 992.2 - 7.8
01/12:00am 6.4 1.2 3.6 82 1.2 WNW 20 35 11 19 991.9 991.9 7.6
 
Date/Time
EST
Temp
°C
App
Temp
°C
Dew
Point
Rel
Hum
%
Delta-T
°C
Wind Press
QNH
hPa
Press
MSL
hPa
Rain
since 9 am
mm
Dir
 
Spd
km/h
Gust
km/h
Spd
kts
Gust
kts
31/11:30pm 6.4 -1.3 3.6 82 1.2 W 33 52 18 28 991.5 - 7.6
31/11:00pm 8.0 -1.5 4.0 76 1.8 WNW 43 63 23 34 990.5 990.5 7.4
31/10:30pm 8.5 -0.2 3.9 73 2.0 WNW 39 57 21 31 990.2 - 6.8
31/10:15pm 8.3 -0.1 3.9 74 1.9 NW 37 57 20 31 990.1 - 6.8
31/10:00pm 7.8 0.0 4.9 82 1.3 NW 35 48 19 26 990.2 990.2 6.8
31/09:30pm 7.0 -2.0 4.3 83 1.2 NW 41 59 22 32 990.5 - 6.8
31/09:22pm 6.7 -2.0 4.0 83 1.2 WNW 39 59 21 32 990.7 - 6.8
31/09:15pm 6.5 -2.3 3.7 82 1.2 WNW 39 50 21 27 990.6 - 6.8
31/09:00pm 6.9 -5.6 4.0 82 1.3 WNW 59 83 32 45 991.0 991.0 6.4
31/08:56pm 7.9 -4.6 4.3 78 1.6 WNW 59 83 32 45 990.5 - 6.0
31/08:51pm 8.5 0.3 4.5 76 1.8 WNW 37 70 20 38 990.3 - 5.8
31/08:30pm 8.1 1.3 5.0 81 1.4 WNW 30 52 16 28 990.0 - 5.8
31/08:18pm 8.2 1.4 5.1 81 1.4 WNW 30 50 16 27 990.3 - 5.8
31/08:00pm 7.9 -0.2 5.2 83 1.2 WNW 37 50 20 27 989.9 989.9 5.8
31/07:30pm 8.6 0.3 4.2 74 1.9 NW 37 61 20 33 989.9 - 5.4
31/07:04pm 8.0 1.3 5.5 84 1.1 NW 30 48 16 26 989.7 - 5.2
31/07:00pm 7.8 1.1 5.4 85 1.1 NW 30 37 16 20 989.7 989.7 5.2
31/06:30pm 7.8 -1.4 5.3 84 1.1 W 43 69 23 37 989.8 - 4.8
31/06:22pm 8.3 -0.2 5.1 80 1.4 W 39 57 21 31 989.6 - 4.6
31/06:20pm 8.7 0.6 5.1 78 1.6 W 37 46 20 25 989.6 - 4.6
31/06:00pm 9.2 -1.4 5.0 75 1.9 WNW 50 76 27 41 988.7 988.7 4.4
31/05:30pm 7.5 0.8 5.6 88 0.9 WNW 30 54 16 29 988.7 - 4.4
31/05:16pm 7.2 -0.9 5.3 88 0.8 WNW 37 56 20 30 988.7 - 4.0
31/05:09pm 7.1 -1.4 5.3 88 0.8 W 39 48 21 26 988.9 - 4.0
31/05:00pm 7.3 -5.7 5.3 87 0.9 WNW 63 89 34 48 989.1 989.1 3.6
31/04:56pm 7.5 -6.6 5.6 88 0.9 WNW 69 89 37 48 989.0 - 3.4
31/04:55pm 7.7 -1.6 5.8 88 0.9 W 44 82 24 44 988.9 - 3.2
31/04:45pm 8.1 0.6 6.2 88 0.9 W 35 57 19 31 988.0 - 2.8
31/04:30pm 8.8 -2.7 7.3 90 0.7 WNW 57 78 31 42 987.7 - 2.4
31/04:29pm 8.9 -2.9 7.4 90 0.7 WNW 59 78 32 42 987.6 - 2.4
31/04:28pm 8.9 -3.3 7.4 90 0.7 WNW 61 78 33 42 987.6 - 2.4
31/04:00pm 9.4 1.1 7.7 89 0.8 WNW 41 63 22 34 986.8 986.8 0.8
31/03:30pm 9.5 0.5 7.3 86 1.0 W 44 69 24 37 985.8 - 0.4
31/03:15pm 10.4 1.5 7.8 84 1.3 W 44 67 24 36 985.6 - 0.4
31/03:14pm 10.5 1.8 7.7 83 1.3 W 43 57 23 31 985.6 - 0.4
31/03:08pm 11.6 -1.8 7.3 75 2.1 W 67 87 36 47 985.2 - 0.2
31/03:00pm 15.4 2.1 7.7 60 3.9 NW 67 95 36 51 983.9 983.9 0.0
31/02:30pm 15.8 1.9 7.3 57 4.2 NW 70 100 38 54 984.5 - 0.0
31/02:00pm 15.6 1.9 7.4 58 4.1 NNW 69 98 37 53 985.2 985.2 0.0
31/01:30pm 16.1 4.1 8.1 59 4.0 NNW 61 83 33 45 986.0 - 0.0
31/01:00pm 16.2 3.8 8.2 59 4.1 NNW 63 83 34 45 986.8 986.8 0.0
31/12:30pm 15.5 3.5 8.3 62 3.6 NNW 61 89 33 48 987.9 - 0.0
31/12:00pm 15.4 3.4 8.2 62 3.7 NNW 61 95 33 51 988.6 988.6 0.0
31/11:30am 15.8 4.9 8.8 63 3.6 NNW 56 82 30 44 989.4 - 0.0
31/11:00am 14.7 4.2 8.9 68 3.0 NNW 54 72 29 39 990.4 990.4 0.0
31/10:30am 14.7 2.4 8.6 67 3.1 NNW 63 87 34 47 991.1 - 0.0
31/10:00am 15.4 2.4 8.6 64 3.5 NNW 67 93 36 50 991.8 991.8 0.0
31/09:30am 14.8 2.9 8.5 66 3.2 NNW 61 85 33 46 992.1 - 0.0
31/09:00am 14.7 2.0 8.4 66 3.2 NNW 65 95 35 51 992.5 992.5 2.0
31/08:30am 14.9 2.1 7.9 63 3.5 NNW 65 102 35 55 993.0 - 2.0
31/08:00am 14.5 2.1 8.2 66 3.2 NNW 63 83 34 45 993.5 993.5 2.0
31/07:30am 14.4 3.3 8.6 68 2.9 NNW 57 80 31 43 993.8 - 2.0
31/07:00am 14.3 3.2 8.7 69 2.9 NNW 57 85 31 46 994.2 994.2 2.0
31/06:30am 14.4 3.5 9.0 70 2.7 NNW 56 80 30 43 994.5 - 2.0
31/06:00am 14.2 3.8 9.4 73 2.5 NNW 54 83 29 45 995.0 995.0 2.0
31/05:37am 14.2 3.9 9.6 74 2.4 NNW 54 89 29 48 995.2 - 2.0
31/05:31am 14.2 4.2 9.4 73 2.5 NNW 52 70 28 38 995.3 - 2.0
31/05:30am 14.2 3.8 9.4 73 2.5 NNW 54 70 29 38 995.3 - 2.0
31/05:00am 14.2 2.6 9.8 75 2.3 NW 61 83 33 45 995.6 995.6 2.0
31/04:30am 14.1 3.8 9.7 75 2.3 NNW 54 78 29 42 995.8 - 2.0
31/04:00am 14.1 2.4 9.5 74 2.4 NW 61 83 33 45 995.9 995.9 2.0
31/03:30am 14.1 2.9 9.7 75 2.3 NW 59 80 32 43 996.1 - 2.0
31/03:00am 14.1 2.4 9.5 74 2.4 NW 61 80 33 43 996.2 996.2 2.0
31/02:30am 14.0 2.4 9.8 76 2.2 NW 61 82 33 44 996.4 - 2.0
31/02:00am 13.6 3.1 10.4 81 1.7 NNW 56 80 30 43 997.1 997.1 2.0
31/01:30am 13.5 2.9 10.1 80 1.8 NW 56 76 30 41 997.7 - 2.0
31/01:00am 13.3 2.9 10.5 83 1.5 NW 56 76 30 41 998.0 998.0 2.0
31/12:30am 12.8 2.2 10.7 87 1.1 NW 57 85 31 46 998.3 - 2.0
31/12:00am 13.0 3.0 10.7 86 1.2 NW 54 78 29 42 998.8 998.8 1.0
 
Date/Time
EST
Temp
°C
App
Temp
°C
Dew
Point
Rel
Hum
%
Delta-T
°C
Wind Press
QNH
hPa
Press
MSL
hPa
Rain
since 9 am
mm
Dir
 
Spd
km/h
Gust
km/h
Spd
kts
Gust
kts
30/11:30pm 13.2 3.1 10.4 83 1.5 NW 54 78 29 42 999.2 - 0.8
30/11:04pm 12.9 3.5 10.1 83 1.4 NW 50 69 27 37 999.4 - 0.8
30/11:00pm 12.9 3.5 10.3 84 1.4 NW 50 63 27 34 999.4 999.4 0.8
30/10:30pm 12.5 2.7 10.2 86 1.2 NW 52 80 28 43 999.7 - 0.8
30/10:00pm 13.1 3.2 11.2 88 1.0 NW 54 76 29 41 999.7 999.7 0.4
30/09:30pm 12.8 1.7 10.3 85 1.3 WNW 59 89 32 48 1000.1 - 0.2
30/09:00pm 13.9 2.5 10.5 80 1.8 NW 61 80 33 43 999.8 999.8 0.2
30/08:30pm 13.9 3.0 10.9 82 1.6 NW 59 85 32 46 1000.0 - 0.2
30/08:00pm 13.7 3.6 10.3 80 1.8 NW 54 72 29 39 1000.1 1000.1 0.2
30/07:30pm 13.8 4.1 10.6 81 1.7 NW 52 83 28 45 1000.3 - 0.2
30/07:00pm 13.6 4.4 10.8 83 1.5 NW 50 74 27 40 1000.5 1000.5 0.2
30/06:30pm 13.6 4.1 11.1 85 1.3 NW 52 74 28 40 1000.4 - 0.2
30/06:00pm 13.2 4.4 11.1 87 1.1 NW 48 76 26 41 1000.2 1000.2 0.2
30/05:30pm 13.7 3.4 10.9 83 1.5 NW 56 76 30 41 1000.0 - 0.2
30/05:00pm 13.7 3.1 10.5 81 1.7 NW 57 83 31 45 999.7 999.7 0.2
30/04:30pm 14.1 3.4 10.3 78 2.0 NW 57 83 31 45 999.6 - 0.2
30/04:00pm 13.9 2.6 10.7 81 1.7 NW 61 89 33 48 999.1 999.1 0.2
30/03:30pm 13.8 1.7 10.8 82 1.6 NW 65 91 35 49 998.6 - 0.2
30/03:00pm 14.0 1.8 10.2 78 2.0 NW 65 96 35 52 998.4 998.4 0.2
30/02:30pm 14.8 2.9 10.2 74 2.4 WNW 63 83 34 45 998.2 - 0.2
30/02:00pm 14.5 0.9 10.1 75 2.3 WNW 72 100 39 54 998.0 998.0 0.2
30/01:30pm 14.7 1.7 10.1 74 2.4 WNW 69 91 37 49 998.1 - 0.2
30/01:00pm 14.7 1.3 9.5 71 2.7 WNW 70 102 38 55 998.6 998.6 0.2
30/12:30pm 14.8 0.4 9.8 72 2.6 WNW 76 109 41 59 999.0 - 0.2
30/12:28pm 14.7 -0.5 9.7 72 2.6 WNW 80 100 43 54 998.9 - 0.2

Other Formats:

Comma delimited format used in spreadsheet applications
http://www.bom.gov.au/fwo/IDT60801/IDT60801.94983.axf

JavaScript Object Notation format (JSON) in row-major order
http://www.bom.gov.au/fwo/IDT60801/IDT60801.94983.json